sensor_id;sensor_type;location;lat;lon;timestamp;P1;durP1;ratioP1;P2;durP2;ratioP2
69008;SDS011;56065;52.472;13.380;2023-05-14T00:01:52;15.90;;;7.20;;
69008;SDS011;56065;52.472;13.380;2023-05-14T00:04:17;12.10;;;6.63;;
69008;SDS011;56065;52.472;13.380;2023-05-14T00:06:43;11.75;;;6.30;;
69008;SDS011;56065;52.472;13.380;2023-05-14T00:09:09;13.13;;;6.27;;
69008;SDS011;56065;52.472;13.380;2023-05-14T00:11:35;12.27;;;7.05;;
69008;SDS011;56065;52.472;13.380;2023-05-14T00:14:01;13.30;;;6.53;;
69008;SDS011;56065;52.472;13.380;2023-05-14T00:16:26;11.17;;;6.90;;
69008;SDS011;56065;52.472;13.380;2023-05-14T00:18:51;10.52;;;6.43;;
69008;SDS011;56065;52.472;13.380;2023-05-14T00:21:17;11.27;;;6.50;;
69008;SDS011;56065;52.472;13.380;2023-05-14T00:23:42;9.97;;;6.30;;
69008;SDS011;56065;52.472;13.380;2023-05-14T00:26:07;13.83;;;7.17;;
69008;SDS011;56065;52.472;13.380;2023-05-14T00:28:33;14.00;;;6.67;;
69008;SDS011;56065;52.472;13.380;2023-05-14T00:30:58;11.57;;;6.37;;
69008;SDS011;56065;52.472;13.380;2023-05-14T00:33:23;12.00;;;6.27;;
69008;SDS011;56065;52.472;13.380;2023-05-14T00:35:49;11.60;;;6.10;;
69008;SDS011;56065;52.472;13.380;2023-05-14T00:38:15;11.90;;;6.75;;
69008;SDS011;56065;52.472;13.380;2023-05-14T00:40:43;10.70;;;6.60;;
69008;SDS011;56065;52.472;13.380;2023-05-14T00:43:15;11.27;;;6.38;;
69008;SDS011;56065;52.472;13.380;2023-05-14T00:45:44;11.07;;;6.20;;
69008;SDS011;56065;52.472;13.380;2023-05-14T00:48:11;11.30;;;6.40;;
69008;SDS011;56065;52.472;13.380;2023-05-14T00:50:37;13.48;;;6.38;;
69008;SDS011;56065;52.472;13.380;2023-05-14T00:53:04;12.85;;;7.13;;
69008;SDS011;56065;52.472;13.380;2023-05-14T00:55:34;12.27;;;6.10;;
69008;SDS011;56065;52.472;13.380;2023-05-14T00:58:01;11.15;;;6.90;;
69008;SDS011;56065;52.472;13.380;2023-05-14T01:00:31;11.73;;;6.70;;
69008;SDS011;56065;52.472;13.380;2023-05-14T01:02:56;12.53;;;6.90;;
69008;SDS011;56065;52.472;13.380;2023-05-14T01:05:28;10.50;;;6.57;;
69008;SDS011;56065;52.472;13.380;2023-05-14T01:08:22;12.48;;;6.85;;
69008;SDS011;56065;52.472;13.380;2023-05-14T01:11:00;13.02;;;6.80;;
69008;SDS011;56065;52.472;13.380;2023-05-14T01:13:35;10.55;;;6.20;;
69008;SDS011;56065;52.472;13.380;2023-05-14T01:16:11;12.00;;;6.73;;
69008;SDS011;56065;52.472;13.380;2023-05-14T01:18:39;11.75;;;6.20;;
69008;SDS011;56065;52.472;13.380;2023-05-14T01:21:17;11.50;;;6.20;;
69008;SDS011;56065;52.472;13.380;2023-05-14T01:23:48;11.50;;;6.43;;
69008;SDS011;56065;52.472;13.380;2023-05-14T01:26:13;9.90;;;5.87;;
69008;SDS011;56065;52.472;13.380;2023-05-14T01:28:38;12.30;;;6.70;;
69008;SDS011;56065;52.472;13.380;2023-05-14T01:31:09;12.17;;;6.27;;
69008;SDS011;56065;52.472;13.380;2023-05-14T01:33:40;10.98;;;5.90;;
69008;SDS011;56065;52.472;13.380;2023-05-14T01:36:07;9.02;;;5.40;;
69008;SDS011;56065;52.472;13.380;2023-05-14T01:38:33;10.40;;;6.00;;
69008;SDS011;56065;52.472;13.380;2023-05-14T01:41:00;10.00;;;5.20;;
69008;SDS011;56065;52.472;13.380;2023-05-14T01:43:26;10.57;;;5.47;;
69008;SDS011;56065;52.472;13.380;2023-05-14T01:45:52;10.93;;;5.75;;
69008;SDS011;56065;52.472;13.380;2023-05-14T01:48:19;11.48;;;5.90;;
69008;SDS011;56065;52.472;13.380;2023-05-14T01:50:44;10.20;;;5.27;;
69008;SDS011;56065;52.472;13.380;2023-05-14T01:53:10;12.17;;;5.90;;
69008;SDS011;56065;52.472;13.380;2023-05-14T01:55:35;10.67;;;5.90;;
69008;SDS011;56065;52.472;13.380;2023-05-14T01:58:00;11.68;;;5.90;;
69008;SDS011;56065;52.472;13.380;2023-05-14T02:00:26;12.33;;;6.10;;
69008;SDS011;56065;52.472;13.380;2023-05-14T02:02:51;11.23;;;5.37;;
69008;SDS011;56065;52.472;13.380;2023-05-14T02:05:17;9.43;;;5.23;;
69008;SDS011;56065;52.472;13.380;2023-05-14T02:07:42;10.13;;;5.60;;
69008;SDS011;56065;52.472;13.380;2023-05-14T02:10:08;10.63;;;6.17;;
69008;SDS011;56065;52.472;13.380;2023-05-14T02:12:34;15.38;;;6.30;;
69008;SDS011;56065;52.472;13.380;2023-05-14T02:15:00;9.20;;;5.37;;
69008;SDS011;56065;52.472;13.380;2023-05-14T02:17:25;10.23;;;5.70;;
69008;SDS011;56065;52.472;13.380;2023-05-14T02:19:51;11.23;;;5.77;;
69008;SDS011;56065;52.472;13.380;2023-05-14T02:22:16;10.10;;;6.07;;
69008;SDS011;56065;52.472;13.380;2023-05-14T02:24:42;10.63;;;5.55;;
69008;SDS011;56065;52.472;13.380;2023-05-14T02:27:07;11.50;;;6.07;;
69008;SDS011;56065;52.472;13.380;2023-05-14T02:29:32;10.50;;;5.30;;
69008;SDS011;56065;52.472;13.380;2023-05-14T02:31:58;10.10;;;5.23;;
69008;SDS011;56065;52.472;13.380;2023-05-14T02:34:23;9.40;;;5.50;;
69008;SDS011;56065;52.472;13.380;2023-05-14T02:36:48;11.63;;;4.77;;
69008;SDS011;56065;52.472;13.380;2023-05-14T02:39:14;11.77;;;5.27;;
69008;SDS011;56065;52.472;13.380;2023-05-14T02:41:39;10.50;;;5.05;;
69008;SDS011;56065;52.472;13.380;2023-05-14T02:44:04;10.27;;;5.03;;
69008;SDS011;56065;52.472;13.380;2023-05-14T02:46:30;10.57;;;4.80;;
69008;SDS011;56065;52.472;13.380;2023-05-14T02:48:56;10.18;;;5.28;;
69008;SDS011;56065;52.472;13.380;2023-05-14T02:51:22;8.33;;;4.80;;
69008;SDS011;56065;52.472;13.380;2023-05-14T02:53:47;11.00;;;5.50;;
69008;SDS011;56065;52.472;13.380;2023-05-14T02:56:12;10.27;;;5.05;;
69008;SDS011;56065;52.472;13.380;2023-05-14T02:58:38;10.33;;;5.13;;
69008;SDS011;56065;52.472;13.380;2023-05-14T03:01:03;8.40;;;4.80;;
69008;SDS011;56065;52.472;13.380;2023-05-14T03:03:29;8.37;;;4.77;;
69008;SDS011;56065;52.472;13.380;2023-05-14T03:05:55;11.55;;;5.13;;
69008;SDS011;56065;52.472;13.380;2023-05-14T03:08:20;9.87;;;5.20;;
69008;SDS011;56065;52.472;13.380;2023-05-14T03:10:46;10.60;;;5.65;;
69008;SDS011;56065;52.472;13.380;2023-05-14T03:13:11;9.50;;;5.67;;
69008;SDS011;56065;52.472;13.380;2023-05-14T03:15:36;9.70;;;4.63;;
69008;SDS011;56065;52.472;13.380;2023-05-14T03:18:02;11.23;;;5.40;;
69008;SDS011;56065;52.472;13.380;2023-05-14T03:20:27;11.32;;;5.20;;
69008;SDS011;56065;52.472;13.380;2023-05-14T03:22:53;10.40;;;5.10;;
69008;SDS011;56065;52.472;13.380;2023-05-14T03:25:20;11.43;;;5.55;;
69008;SDS011;56065;52.472;13.380;2023-05-14T03:27:45;10.77;;;5.07;;
69008;SDS011;56065;52.472;13.380;2023-05-14T03:30:11;9.60;;;5.53;;
69008;SDS011;56065;52.472;13.380;2023-05-14T03:32:36;9.23;;;5.07;;
69008;SDS011;56065;52.472;13.380;2023-05-14T03:35:02;10.60;;;5.13;;
69008;SDS011;56065;52.472;13.380;2023-05-14T03:37:27;9.57;;;5.27;;
69008;SDS011;56065;52.472;13.380;2023-05-14T03:39:52;10.80;;;5.47;;
69008;SDS011;56065;52.472;13.380;2023-05-14T03:42:18;9.97;;;5.37;;
69008;SDS011;56065;52.472;13.380;2023-05-14T03:44:43;11.77;;;5.70;;
69008;SDS011;56065;52.472;13.380;2023-05-14T03:47:09;10.40;;;5.27;;
69008;SDS011;56065;52.472;13.380;2023-05-14T03:49:34;10.90;;;5.67;;
69008;SDS011;56065;52.472;13.380;2023-05-14T03:51:59;14.03;;;5.30;;
69008;SDS011;56065;52.472;13.380;2023-05-14T03:54:25;10.82;;;5.50;;
69008;SDS011;56065;52.472;13.380;2023-05-14T03:56:50;11.70;;;5.50;;
69008;SDS011;56065;52.472;13.380;2023-05-14T03:59:16;10.20;;;5.57;;
69008;SDS011;56065;52.472;13.380;2023-05-14T04:01:41;10.40;;;5.23;;
69008;SDS011;56065;52.472;13.380;2023-05-14T04:04:07;9.13;;;5.10;;
69008;SDS011;56065;52.472;13.380;2023-05-14T04:06:33;13.80;;;5.27;;
69008;SDS011;56065;52.472;13.380;2023-05-14T04:08:58;10.90;;;5.60;;
69008;SDS011;56065;52.472;13.380;2023-05-14T04:11:23;9.80;;;5.40;;
69008;SDS011;56065;52.472;13.380;2023-05-14T04:13:49;10.77;;;5.30;;
69008;SDS011;56065;52.472;13.380;2023-05-14T04:16:14;11.13;;;5.57;;
69008;SDS011;56065;52.472;13.380;2023-05-14T04:18:39;10.83;;;5.43;;
69008;SDS011;56065;52.472;13.380;2023-05-14T04:21:05;10.83;;;6.40;;
69008;SDS011;56065;52.472;13.380;2023-05-14T04:23:30;10.43;;;6.03;;
69008;SDS011;56065;52.472;13.380;2023-05-14T04:25:56;10.52;;;5.43;;
69008;SDS011;56065;52.472;13.380;2023-05-14T04:28:22;10.70;;;5.63;;
69008;SDS011;56065;52.472;13.380;2023-05-14T04:30:47;11.88;;;5.70;;
69008;SDS011;56065;52.472;13.380;2023-05-14T04:33:13;10.63;;;5.60;;
69008;SDS011;56065;52.472;13.380;2023-05-14T04:35:38;11.37;;;6.23;;
69008;SDS011;56065;52.472;13.380;2023-05-14T04:38:03;12.07;;;6.30;;
69008;SDS011;56065;52.472;13.380;2023-05-14T04:40:29;12.02;;;6.10;;
69008;SDS011;56065;52.472;13.380;2023-05-14T04:42:55;10.80;;;5.78;;
69008;SDS011;56065;52.472;13.380;2023-05-14T04:45:21;12.00;;;6.30;;
69008;SDS011;56065;52.472;13.380;2023-05-14T04:47:46;12.90;;;6.53;;
69008;SDS011;56065;52.472;13.380;2023-05-14T04:50:12;15.60;;;6.97;;
69008;SDS011;56065;52.472;13.380;2023-05-14T04:52:37;16.08;;;7.75;;
69008;SDS011;56065;52.472;13.380;2023-05-14T04:55:03;12.50;;;6.17;;
69008;SDS011;56065;52.472;13.380;2023-05-14T04:57:28;17.00;;;6.30;;
69008;SDS011;56065;52.472;13.380;2023-05-14T04:59:54;14.00;;;5.47;;
69008;SDS011;56065;52.472;13.380;2023-05-14T05:02:19;12.67;;;6.23;;
69008;SDS011;56065;52.472;13.380;2023-05-14T05:04:45;13.30;;;5.87;;
69008;SDS011;56065;52.472;13.380;2023-05-14T05:07:11;10.55;;;5.10;;
69008;SDS011;56065;52.472;13.380;2023-05-14T05:09:37;9.73;;;5.70;;
69008;SDS011;56065;52.472;13.380;2023-05-14T05:12:02;11.40;;;5.37;;
69008;SDS011;56065;52.472;13.380;2023-05-14T05:14:28;12.15;;;5.70;;
69008;SDS011;56065;52.472;13.380;2023-05-14T05:16:54;11.18;;;5.32;;
69008;SDS011;56065;52.472;13.380;2023-05-14T05:19:20;10.33;;;5.80;;
69008;SDS011;56065;52.472;13.380;2023-05-14T05:21:45;9.53;;;5.30;;
69008;SDS011;56065;52.472;13.380;2023-05-14T05:24:10;12.13;;;5.57;;
69008;SDS011;56065;52.472;13.380;2023-05-14T05:26:37;11.38;;;4.82;;
69008;SDS011;56065;52.472;13.380;2023-05-14T05:29:02;9.60;;;5.30;;
69008;SDS011;56065;52.472;13.380;2023-05-14T05:31:28;10.68;;;5.88;;
69008;SDS011;56065;52.472;13.380;2023-05-14T05:33:54;13.57;;;6.00;;
69008;SDS011;56065;52.472;13.380;2023-05-14T05:36:20;12.70;;;5.67;;
69008;SDS011;56065;52.472;13.380;2023-05-14T05:38:45;10.30;;;5.40;;
69008;SDS011;56065;52.472;13.380;2023-05-14T05:41:11;8.20;;;5.37;;
69008;SDS011;56065;52.472;13.380;2023-05-14T05:43:36;11.50;;;5.40;;
69008;SDS011;56065;52.472;13.380;2023-05-14T05:46:01;12.47;;;5.77;;
69008;SDS011;56065;52.472;13.380;2023-05-14T05:48:27;12.53;;;5.53;;
69008;SDS011;56065;52.472;13.380;2023-05-14T05:50:52;11.33;;;5.43;;
69008;SDS011;56065;52.472;13.380;2023-05-14T05:53:17;10.10;;;5.47;;
69008;SDS011;56065;52.472;13.380;2023-05-14T05:55:43;11.60;;;5.13;;
69008;SDS011;56065;52.472;13.380;2023-05-14T05:58:08;11.80;;;5.43;;
69008;SDS011;56065;52.472;13.380;2023-05-14T06:00:34;10.17;;;5.70;;
69008;SDS011;56065;52.472;13.380;2023-05-14T06:02:59;10.13;;;5.30;;
69008;SDS011;56065;52.472;13.380;2023-05-14T06:05:25;10.23;;;5.60;;
69008;SDS011;56065;52.472;13.380;2023-05-14T06:07:50;10.50;;;5.68;;
69008;SDS011;56065;52.472;13.380;2023-05-14T06:10:17;11.20;;;5.35;;
69008;SDS011;56065;52.472;13.380;2023-05-14T06:12:43;9.67;;;5.53;;
69008;SDS011;56065;52.472;13.380;2023-05-14T06:15:08;11.00;;;5.43;;
69008;SDS011;56065;52.472;13.380;2023-05-14T06:17:35;10.10;;;5.50;;
69008;SDS011;56065;52.472;13.380;2023-05-14T06:20:00;10.37;;;5.27;;
69008;SDS011;56065;52.472;13.380;2023-05-14T06:22:25;10.93;;;5.63;;
69008;SDS011;56065;52.472;13.380;2023-05-14T06:24:51;11.27;;;5.50;;
69008;SDS011;56065;52.472;13.380;2023-05-14T06:27:16;12.13;;;5.87;;
69008;SDS011;56065;52.472;13.380;2023-05-14T06:29:42;9.67;;;5.50;;
69008;SDS011;56065;52.472;13.380;2023-05-14T06:32:07;12.93;;;5.70;;
69008;SDS011;56065;52.472;13.380;2023-05-14T06:34:33;9.30;;;4.95;;
69008;SDS011;56065;52.472;13.380;2023-05-14T06:36:58;12.53;;;5.43;;
69008;SDS011;56065;52.472;13.380;2023-05-14T06:39:24;10.32;;;5.25;;
69008;SDS011;56065;52.472;13.380;2023-05-14T06:41:49;11.77;;;5.17;;
69008;SDS011;56065;52.472;13.380;2023-05-14T06:44:15;13.03;;;5.53;;
69008;SDS011;56065;52.472;13.380;2023-05-14T06:46:41;13.40;;;6.05;;
69008;SDS011;56065;52.472;13.380;2023-05-14T06:49:06;10.73;;;5.43;;
69008;SDS011;56065;52.472;13.380;2023-05-14T06:51:31;8.07;;;4.90;;
69008;SDS011;56065;52.472;13.380;2023-05-14T06:53:57;12.63;;;5.83;;
69008;SDS011;56065;52.472;13.380;2023-05-14T06:56:22;13.33;;;5.57;;
69008;SDS011;56065;52.472;13.380;2023-05-14T06:58:47;10.40;;;5.27;;
69008;SDS011;56065;52.472;13.380;2023-05-14T07:01:13;13.40;;;5.57;;
69008;SDS011;56065;52.472;13.380;2023-05-14T07:03:38;12.50;;;5.10;;
69008;SDS011;56065;52.472;13.380;2023-05-14T07:06:03;9.73;;;4.90;;
69008;SDS011;56065;52.472;13.380;2023-05-14T07:08:30;8.70;;;4.53;;
69008;SDS011;56065;52.472;13.380;2023-05-14T07:10:56;9.60;;;4.80;;
69008;SDS011;56065;52.472;13.380;2023-05-14T07:13:21;9.20;;;4.63;;
69008;SDS011;56065;52.472;13.380;2023-05-14T07:15:47;10.57;;;4.80;;
69008;SDS011;56065;52.472;13.380;2023-05-14T07:18:12;15.43;;;5.27;;
69008;SDS011;56065;52.472;13.380;2023-05-14T07:20:38;10.83;;;4.27;;
69008;SDS011;56065;52.472;13.380;2023-05-14T07:23:03;9.60;;;4.88;;
69008;SDS011;56065;52.472;13.380;2023-05-14T07:25:28;7.00;;;4.30;;
69008;SDS011;56065;52.472;13.380;2023-05-14T07:27:54;9.10;;;4.50;;
69008;SDS011;56065;52.472;13.380;2023-05-14T07:30:19;11.13;;;4.60;;
69008;SDS011;56065;52.472;13.380;2023-05-14T07:32:45;10.18;;;4.18;;
69008;SDS011;56065;52.472;13.380;2023-05-14T07:35:10;10.27;;;4.70;;
69008;SDS011;56065;52.472;13.380;2023-05-14T07:37:36;8.27;;;4.73;;
69008;SDS011;56065;52.472;13.380;2023-05-14T07:40:01;11.05;;;4.05;;
69008;SDS011;56065;52.472;13.380;2023-05-14T07:42:27;11.73;;;4.40;;
69008;SDS011;56065;52.472;13.380;2023-05-14T07:44:52;10.03;;;3.87;;
69008;SDS011;56065;52.472;13.380;2023-05-14T07:47:18;7.70;;;3.80;;
69008;SDS011;56065;52.472;13.380;2023-05-14T07:49:43;8.88;;;4.05;;
69008;SDS011;56065;52.472;13.380;2023-05-14T07:52:08;8.67;;;3.97;;
69008;SDS011;56065;52.472;13.380;2023-05-14T07:54:34;8.13;;;3.60;;
69008;SDS011;56065;52.472;13.380;2023-05-14T07:56:59;8.47;;;3.77;;
69008;SDS011;56065;52.472;13.380;2023-05-14T07:59:24;6.97;;;3.23;;
69008;SDS011;56065;52.472;13.380;2023-05-14T08:01:50;7.50;;;3.20;;
69008;SDS011;56065;52.472;13.380;2023-05-14T08:04:15;7.65;;;3.90;;
69008;SDS011;56065;52.472;13.380;2023-05-14T08:06:41;8.93;;;3.47;;
69008;SDS011;56065;52.472;13.380;2023-05-14T08:09:07;7.70;;;3.27;;
69008;SDS011;56065;52.472;13.380;2023-05-14T08:11:33;7.82;;;3.20;;
69008;SDS011;56065;52.472;13.380;2023-05-14T08:13:59;7.27;;;3.50;;
69008;SDS011;56065;52.472;13.380;2023-05-14T08:16:24;8.80;;;3.60;;
69008;SDS011;56065;52.472;13.380;2023-05-14T08:18:50;7.50;;;3.50;;
69008;SDS011;56065;52.472;13.380;2023-05-14T08:21:16;8.97;;;3.97;;
69008;SDS011;56065;52.472;13.380;2023-05-14T08:23:41;10.65;;;3.70;;
69008;SDS011;56065;52.472;13.380;2023-05-14T08:26:07;7.40;;;3.47;;
69008;SDS011;56065;52.472;13.380;2023-05-14T08:28:32;7.07;;;3.57;;
69008;SDS011;56065;52.472;13.380;2023-05-14T08:30:58;9.60;;;3.55;;
69008;SDS011;56065;52.472;13.380;2023-05-14T08:33:23;7.23;;;3.20;;
69008;SDS011;56065;52.472;13.380;2023-05-14T08:35:49;8.87;;;3.40;;
69008;SDS011;56065;52.472;13.380;2023-05-14T08:38:16;7.15;;;3.05;;
69008;SDS011;56065;52.472;13.380;2023-05-14T08:40:45;7.70;;;3.17;;
69008;SDS011;56065;52.472;13.380;2023-05-14T08:43:12;7.55;;;2.75;;
69008;SDS011;56065;52.472;13.380;2023-05-14T08:45:43;9.00;;;2.87;;
69008;SDS011;56065;52.472;13.380;2023-05-14T08:48:10;10.40;;;3.13;;
69008;SDS011;56065;52.472;13.380;2023-05-14T08:50:40;5.93;;;2.97;;
69008;SDS011;56065;52.472;13.380;2023-05-14T08:53:07;7.40;;;2.80;;
69008;SDS011;56065;52.472;13.380;2023-05-14T08:55:32;7.47;;;2.87;;
69008;SDS011;56065;52.472;13.380;2023-05-14T08:57:58;6.25;;;2.50;;
69008;SDS011;56065;52.472;13.380;2023-05-14T09:00:24;9.33;;;3.23;;
69008;SDS011;56065;52.472;13.380;2023-05-14T09:02:50;7.38;;;2.80;;
69008;SDS011;56065;52.472;13.380;2023-05-14T09:05:16;8.43;;;3.20;;
69008;SDS011;56065;52.472;13.380;2023-05-14T09:07:43;8.05;;;3.17;;
69008;SDS011;56065;52.472;13.380;2023-05-14T09:10:09;8.90;;;3.30;;
69008;SDS011;56065;52.472;13.380;2023-05-14T09:12:35;7.75;;;3.90;;
69008;SDS011;56065;52.472;13.380;2023-05-14T09:15:00;8.67;;;4.03;;
69008;SDS011;56065;52.472;13.380;2023-05-14T09:17:26;6.63;;;3.90;;
69008;SDS011;56065;52.472;13.380;2023-05-14T09:19:51;8.48;;;3.40;;
69008;SDS011;56065;52.472;13.380;2023-05-14T09:22:17;8.37;;;2.80;;
69008;SDS011;56065;52.472;13.380;2023-05-14T09:24:44;9.57;;;3.47;;
69008;SDS011;56065;52.472;13.380;2023-05-14T09:27:19;6.68;;;3.30;;
69008;SDS011;56065;52.472;13.380;2023-05-14T09:29:46;7.07;;;3.25;;
69008;SDS011;56065;52.472;13.380;2023-05-14T09:32:11;6.93;;;3.28;;
69008;SDS011;56065;52.472;13.380;2023-05-14T09:34:37;8.23;;;3.23;;
69008;SDS011;56065;52.472;13.380;2023-05-14T09:37:07;7.13;;;2.80;;
69008;SDS011;56065;52.472;13.380;2023-05-14T09:39:34;7.33;;;2.97;;
69008;SDS011;56065;52.472;13.380;2023-05-14T09:42:00;6.03;;;3.15;;
69008;SDS011;56065;52.472;13.380;2023-05-14T09:44:26;6.30;;;2.70;;
69008;SDS011;56065;52.472;13.380;2023-05-14T09:46:52;8.27;;;3.20;;
69008;SDS011;56065;52.472;13.380;2023-05-14T09:49:18;6.95;;;3.25;;
69008;SDS011;56065;52.472;13.380;2023-05-14T09:51:43;7.97;;;3.30;;
69008;SDS011;56065;52.472;13.380;2023-05-14T09:54:09;8.00;;;4.13;;
69008;SDS011;56065;52.472;13.380;2023-05-14T09:56:35;7.20;;;3.03;;
69008;SDS011;56065;52.472;13.380;2023-05-14T09:59:01;6.47;;;2.83;;
69008;SDS011;56065;52.472;13.380;2023-05-14T10:01:28;8.73;;;3.50;;
69008;SDS011;56065;52.472;13.380;2023-05-14T10:03:54;6.28;;;3.10;;
69008;SDS011;56065;52.472;13.380;2023-05-14T10:06:24;5.97;;;2.80;;
69008;SDS011;56065;52.472;13.380;2023-05-14T10:08:53;8.10;;;3.40;;
69008;SDS011;56065;52.472;13.380;2023-05-14T10:11:21;6.43;;;3.10;;
69008;SDS011;56065;52.472;13.380;2023-05-14T10:16:39;6.85;;;2.83;;
69008;SDS011;56065;52.472;13.380;2023-05-14T10:19:07;11.15;;;3.10;;
69008;SDS011;56065;52.472;13.380;2023-05-14T10:21:37;7.40;;;4.00;;
69008;SDS011;56065;52.472;13.380;2023-05-14T10:24:05;7.35;;;2.80;;
69008;SDS011;56065;52.472;13.380;2023-05-14T10:26:33;6.97;;;3.60;;
69008;SDS011;56065;52.472;13.380;2023-05-14T10:29:03;8.57;;;2.95;;
69008;SDS011;56065;52.472;13.380;2023-05-14T10:37:02;7.32;;;3.05;;
69008;SDS011;56065;52.472;13.380;2023-05-14T10:42:36;6.75;;;2.70;;
69008;SDS011;56065;52.472;13.380;2023-05-14T10:45:07;8.27;;;3.10;;
69008;SDS011;56065;52.472;13.380;2023-05-14T10:47:35;7.80;;;3.10;;
69008;SDS011;56065;52.472;13.380;2023-05-14T10:50:02;9.13;;;3.17;;
69008;SDS011;56065;52.472;13.380;2023-05-14T10:52:30;8.23;;;3.00;;
69008;SDS011;56065;52.472;13.380;2023-05-14T10:54:56;8.20;;;3.10;;
69008;SDS011;56065;52.472;13.380;2023-05-14T10:57:24;9.40;;;3.92;;
69008;SDS011;56065;52.472;13.380;2023-05-14T10:59:51;8.05;;;3.08;;
69008;SDS011;56065;52.472;13.380;2023-05-14T11:02:25;7.70;;;2.80;;
69008;SDS011;56065;52.472;13.380;2023-05-14T11:04:57;7.60;;;2.92;;
69008;SDS011;56065;52.472;13.380;2023-05-14T11:07:39;8.67;;;3.93;;
69008;SDS011;56065;52.472;13.380;2023-05-14T11:10:07;7.30;;;3.05;;
69008;SDS011;56065;52.472;13.380;2023-05-14T11:12:39;8.43;;;3.90;;
69008;SDS011;56065;52.472;13.380;2023-05-14T11:15:10;7.78;;;3.10;;
69008;SDS011;56065;52.472;13.380;2023-05-14T11:17:37;11.63;;;4.32;;
69008;SDS011;56065;52.472;13.380;2023-05-14T11:20:04;9.53;;;3.30;;
69008;SDS011;56065;52.472;13.380;2023-05-14T11:22:30;9.73;;;2.92;;
69008;SDS011;56065;52.472;13.380;2023-05-14T11:24:56;7.00;;;3.05;;
69008;SDS011;56065;52.472;13.380;2023-05-14T11:27:22;9.37;;;3.87;;
69008;SDS011;56065;52.472;13.380;2023-05-14T11:29:48;6.80;;;2.88;;
69008;SDS011;56065;52.472;13.380;2023-05-14T11:32:14;8.52;;;2.97;;
69008;SDS011;56065;52.472;13.380;2023-05-14T11:34:40;8.07;;;3.30;;
69008;SDS011;56065;52.472;13.380;2023-05-14T11:37:08;9.70;;;3.03;;
69008;SDS011;56065;52.472;13.380;2023-05-14T11:39:35;10.38;;;3.50;;
69008;SDS011;56065;52.472;13.380;2023-05-14T11:42:02;9.20;;;3.70;;
69008;SDS011;56065;52.472;13.380;2023-05-14T11:44:30;9.10;;;3.58;;
69008;SDS011;56065;52.472;13.380;2023-05-14T11:46:56;8.40;;;3.63;;
69008;SDS011;56065;52.472;13.380;2023-05-14T11:49:25;7.68;;;3.35;;
69008;SDS011;56065;52.472;13.380;2023-05-14T11:52:03;8.15;;;3.40;;
69008;SDS011;56065;52.472;13.380;2023-05-14T11:54:30;8.90;;;3.50;;
69008;SDS011;56065;52.472;13.380;2023-05-14T11:56:57;9.30;;;3.33;;
69008;SDS011;56065;52.472;13.380;2023-05-14T11:59:23;10.33;;;3.30;;
69008;SDS011;56065;52.472;13.380;2023-05-14T12:01:49;7.22;;;3.78;;
69008;SDS011;56065;52.472;13.380;2023-05-14T12:04:17;10.05;;;4.05;;
69008;SDS011;56065;52.472;13.380;2023-05-14T12:06:46;8.02;;;3.50;;
69008;SDS011;56065;52.472;13.380;2023-05-14T12:09:13;8.15;;;3.08;;
69008;SDS011;56065;52.472;13.380;2023-05-14T12:11:41;9.47;;;3.77;;
69008;SDS011;56065;52.472;13.380;2023-05-14T12:14:11;8.50;;;3.90;;
69008;SDS011;56065;52.472;13.380;2023-05-14T12:16:40;8.98;;;3.42;;
69008;SDS011;56065;52.472;13.380;2023-05-14T12:19:07;7.33;;;3.30;;
69008;SDS011;56065;52.472;13.380;2023-05-14T12:21:35;7.97;;;3.40;;
69008;SDS011;56065;52.472;13.380;2023-05-14T12:24:01;7.15;;;3.42;;
69008;SDS011;56065;52.472;13.380;2023-05-14T12:26:26;8.57;;;4.50;;
69008;SDS011;56065;52.472;13.380;2023-05-14T12:28:59;9.35;;;4.38;;
69008;SDS011;56065;52.472;13.380;2023-05-14T12:31:28;9.73;;;4.32;;
69008;SDS011;56065;52.472;13.380;2023-05-14T12:33:55;8.33;;;4.10;;
69008;SDS011;56065;52.472;13.380;2023-05-14T12:36:20;7.47;;;3.30;;
69008;SDS011;56065;52.472;13.380;2023-05-14T12:38:46;7.90;;;4.40;;
69008;SDS011;56065;52.472;13.380;2023-05-14T12:41:11;8.73;;;3.78;;
69008;SDS011;56065;52.472;13.380;2023-05-14T12:43:36;9.77;;;3.40;;
69008;SDS011;56065;52.472;13.380;2023-05-14T12:46:02;6.70;;;3.13;;
69008;SDS011;56065;52.472;13.380;2023-05-14T12:48:27;8.90;;;4.73;;
69008;SDS011;56065;52.472;13.380;2023-05-14T12:50:52;8.47;;;4.30;;
69008;SDS011;56065;52.472;13.380;2023-05-14T12:53:18;13.17;;;4.77;;
69008;SDS011;56065;52.472;13.380;2023-05-14T12:55:43;9.37;;;4.10;;
69008;SDS011;56065;52.472;13.380;2023-05-14T12:58:08;8.43;;;4.15;;
69008;SDS011;56065;52.472;13.380;2023-05-14T13:00:34;7.83;;;3.23;;
69008;SDS011;56065;52.472;13.380;2023-05-14T13:02:59;8.77;;;3.67;;
69008;SDS011;56065;52.472;13.380;2023-05-14T13:05:24;9.53;;;3.97;;
69008;SDS011;56065;52.472;13.380;2023-05-14T13:07:51;8.97;;;3.97;;
69008;SDS011;56065;52.472;13.380;2023-05-14T13:10:17;8.93;;;3.70;;
69008;SDS011;56065;52.472;13.380;2023-05-14T13:12:42;9.47;;;4.40;;
69008;SDS011;56065;52.472;13.380;2023-05-14T13:15:08;25.13;;;13.13;;
69008;SDS011;56065;52.472;13.380;2023-05-14T13:17:34;12.32;;;6.20;;
69008;SDS011;56065;52.472;13.380;2023-05-14T13:20:00;10.87;;;5.60;;
69008;SDS011;56065;52.472;13.380;2023-05-14T13:22:25;15.60;;;5.70;;
69008;SDS011;56065;52.472;13.380;2023-05-14T13:24:50;37.43;;;20.40;;
69008;SDS011;56065;52.472;13.380;2023-05-14T13:27:16;17.80;;;10.93;;
69008;SDS011;56065;52.472;13.380;2023-05-14T13:29:41;14.17;;;7.10;;
69008;SDS011;56065;52.472;13.380;2023-05-14T13:32:07;20.33;;;11.17;;
69008;SDS011;56065;52.472;13.380;2023-05-14T13:34:32;11.23;;;5.72;;
69008;SDS011;56065;52.472;13.380;2023-05-14T13:36:58;11.53;;;5.77;;
69008;SDS011;56065;52.472;13.380;2023-05-14T13:39:23;21.97;;;11.00;;
69008;SDS011;56065;52.472;13.380;2023-05-14T13:41:51;14.48;;;7.07;;
69008;SDS011;56065;52.472;13.380;2023-05-14T13:44:16;13.93;;;7.60;;
69008;SDS011;56065;52.472;13.380;2023-05-14T13:46:42;11.20;;;5.00;;
69008;SDS011;56065;52.472;13.380;2023-05-14T13:49:07;11.13;;;5.70;;
69008;SDS011;56065;52.472;13.380;2023-05-14T13:51:33;12.57;;;6.40;;
69008;SDS011;56065;52.472;13.380;2023-05-14T13:53:58;9.97;;;4.60;;
69008;SDS011;56065;52.472;13.380;2023-05-14T13:56:24;14.07;;;7.40;;
69008;SDS011;56065;52.472;13.380;2023-05-14T13:58:49;8.82;;;4.10;;
69008;SDS011;56065;52.472;13.380;2023-05-14T14:01:15;9.13;;;4.00;;
69008;SDS011;56065;52.472;13.380;2023-05-14T14:03:40;8.43;;;3.40;;
69008;SDS011;56065;52.472;13.380;2023-05-14T14:06:06;11.40;;;5.60;;
69008;SDS011;56065;52.472;13.380;2023-05-14T14:08:31;7.40;;;3.73;;
69008;SDS011;56065;52.472;13.380;2023-05-14T14:10:56;21.88;;;11.85;;
69008;SDS011;56065;52.472;13.380;2023-05-14T14:13:22;12.93;;;5.63;;
69008;SDS011;56065;52.472;13.380;2023-05-14T14:15:47;6.40;;;3.10;;
69008;SDS011;56065;52.472;13.380;2023-05-14T14:18:13;11.27;;;3.20;;
69008;SDS011;56065;52.472;13.380;2023-05-14T14:20:38;8.37;;;3.60;;
69008;SDS011;56065;52.472;13.380;2023-05-14T14:23:03;9.20;;;3.92;;
69008;SDS011;56065;52.472;13.380;2023-05-14T14:25:29;12.50;;;5.50;;
69008;SDS011;56065;52.472;13.380;2023-05-14T14:27:54;13.10;;;4.97;;
69008;SDS011;56065;52.472;13.380;2023-05-14T14:30:19;9.83;;;4.07;;
69008;SDS011;56065;52.472;13.380;2023-05-14T14:32:45;7.53;;;3.85;;
69008;SDS011;56065;52.472;13.380;2023-05-14T14:35:12;9.83;;;4.43;;